Time;durP1;ratioP1;P1;durP2;ratioP2;P2;SDS_P1;SDS_P2;PMS_P1;PMS_P2;Temp;Humidity;BMP_temperature;BMP_pressure;BME280_temperature;BME280_humidity;BME280_pressure;Samples;Min_cycle;Max_cycle;Signal;HPM_P1;HPM_P2
2023/10/22 00:10:47;;;;;;;0.38;0.38;;;;;;;;;;6296490;22;20043;-90
2023/10/22 00:13:13;;;;;;;0.20;0.20;;;;;;;;;;6245067;22;20073;-89
2023/10/22 00:15:39;;;;;;;0.20;0.20;;;;;;;;;;6244273;22;20053;-90
2023/10/22 00:18:05;;;;;;;0.10;0.10;;;;;;;;;;6244515;22;20099;-90
2023/10/22 00:23:07;;;;;;;0.20;0.20;;;;;;;;;;6290192;22;20095;-90
2023/10/22 00:25:36;;;;;;;0.25;0.25;;;;;;;;;;6239683;23;20027;-90
2023/10/22 00:28:06;;;;;;;0.20;0.20;;;;;;;;;;6213208;23;20020;-89
2023/10/22 00:30:32;;;;;;;0.20;0.20;;;;;;;;;;6216823;23;20016;-90
2023/10/22 00:32:58;;;;;;;0.10;0.10;;;;;;;;;;6214102;23;20020;-89
2023/10/22 00:35:24;;;;;;;0.20;0.20;;;;;;;;;;6214805;23;20091;-89
2023/10/22 00:37:50;;;;;;;0.20;0.20;;;;;;;;;;6214485;23;20031;-89
2023/10/22 00:43:30;;;;;;;0.20;0.20;;;;;;;;;;6246933;22;20055;-90
2023/10/22 00:45:57;;;;;;;0.20;0.20;;;;;;;;;;6212984;23;20024;-89
2023/10/22 00:48:24;;;;;;;0.30;0.30;;;;;;;;;;6213008;23;20028;-89
2023/10/22 00:50:51;;;;;;;0.10;0.10;;;;;;;;;;6214061;23;20016;-89
2023/10/22 00:53:17;;;;;;;0.22;0.22;;;;;;;;;;6213705;22;20027;-90
2023/10/22 00:55:45;;;;;;;0.20;0.20;;;;;;;;;;6215072;23;20097;-90
2023/10/22 00:58:20;;;;;;;0.28;0.28;;;;;;;;;;6238566;22;20020;-91
2023/10/22 01:00:46;;;;;;;0.15;0.15;;;;;;;;;;6214999;23;20012;-91
2023/10/22 01:03:12;;;;;;;0.30;0.30;;;;;;;;;;6214272;23;20019;-90
2023/10/22 01:05:38;;;;;;;0.20;0.20;;;;;;;;;;6215251;23;20024;-91
2023/10/22 01:08:09;;;;;;;0.30;0.30;;;;;;;;;;6214723;23;20027;-90
2023/10/22 01:10:35;;;;;;;0.30;0.30;;;;;;;;;;6216630;22;20019;-89
2023/10/22 01:13:04;;;;;;;0.28;0.28;;;;;;;;;;6214374;23;20020;-90
2023/10/22 01:15:32;;;;;;;0.20;0.20;;;;;;;;;;6214030;23;20004;-92
2023/10/22 01:23:10;;;;;;;0.30;0.30;;;;;;;;;;6267118;22;20031;-91
2023/10/22 01:38:35;;;;;;;0.40;0.40;;;;;;;;;;6306187;22;20027;-90
2023/10/22 01:41:04;;;;;;;0.20;0.20;;;;;;;;;;6276485;22;20026;-90
2023/10/22 01:43:30;;;;;;;0.20;0.20;;;;;;;;;;6276161;22;20015;-92
2023/10/22 01:45:56;;;;;;;0.30;0.30;;;;;;;;;;6275605;22;20011;-92
2023/10/22 01:48:24;;;;;;;0.20;0.20;;;;;;;;;;6277160;22;20050;-90
2023/10/22 01:56:04;;;;;;;0.30;0.30;;;;;;;;;;6329423;22;20023;-91
2023/10/22 02:01:06;;;;;;;0.30;0.30;;;;;;;;;;6286509;22;20234;-91
2023/10/22 02:11:19;;;;;;;0.20;0.20;;;;;;;;;;6316349;22;20007;-92
2023/10/22 02:16:23;;;;;;;0.20;0.20;;;;;;;;;;6330108;22;20038;-92
2023/10/22 02:21:33;;;;;;;0.30;0.30;;;;;;;;;;6331635;22;20019;-92
2023/10/22 02:26:35;;;;;;;0.30;0.30;;;;;;;;;;6269937;23;20035;-92
2023/10/22 02:29:01;;;;;;;0.20;0.20;;;;;;;;;;6216972;23;20020;-92
2023/10/22 02:31:27;;;;;;;0.40;0.40;;;;;;;;;;6216945;23;20016;-92
2023/10/22 02:34:10;;;;;;;0.10;0.10;;;;;;;;;;6260301;22;20010;-90
2023/10/22 02:36:36;;;;;;;0.20;0.20;;;;;;;;;;6303192;22;20019;-93
2023/10/22 02:39:04;;;;;;;0.30;0.30;;;;;;;;;;6301977;22;20015;-91
2023/10/22 02:41:30;;;;;;;0.22;0.22;;;;;;;;;;6302487;22;20019;-91
2023/10/22 02:43:57;;;;;;;0.20;0.20;;;;;;;;;;6303626;22;20026;-91
2023/10/22 02:46:23;;;;;;;0.30;0.30;;;;;;;;;;6302688;22;20019;-91
2023/10/22 02:48:52;;;;;;;0.20;0.20;;;;;;;;;;6302622;22;20041;-90
2023/10/22 02:51:18;;;;;;;0.30;0.30;;;;;;;;;;6306253;22;20063;-91
2023/10/22 02:53:44;;;;;;;0.20;0.20;;;;;;;;;;6328745;22;20023;-91
2023/10/22 02:58:52;;;;;;;0.20;0.20;;;;;;;;;;6326946;22;20030;-92
2023/10/22 03:01:18;;;;;;;0.20;0.20;;;;;;;;;;6280553;22;20026;-90
2023/10/22 03:03:44;;;;;;;0.30;0.30;;;;;;;;;;6277718;22;20349;-90
2023/10/22 03:06:38;;;;;;;0.30;0.30;;;;;;;;;;6306610;22;20019;-89
2023/10/22 03:09:05;;;;;;;0.20;0.20;;;;;;;;;;6278184;22;20034;-88
2023/10/22 03:11:44;;;;;;;0.20;0.20;;;;;;;;;;6335921;22;20023;-88
2023/10/22 03:14:20;;;;;;;0.20;0.20;;;;;;;;;;6301278;22;19995;-86
2023/10/22 03:16:49;;;;;;;0.30;0.30;;;;;;;;;;6272297;22;20015;-88
2023/10/22 03:19:17;;;;;;;0.30;0.30;;;;;;;;;;6271345;22;20023;-88
2023/10/22 03:21:43;;;;;;;0.30;0.30;;;;;;;;;;6275994;22;20015;-88
2023/10/22 03:24:12;;;;;;;0.20;0.20;;;;;;;;;;6270553;22;20015;-90
2023/10/22 03:26:38;;;;;;;0.20;0.20;;;;;;;;;;6304210;22;20019;-89
2023/10/22 03:29:04;;;;;;;0.20;0.20;;;;;;;;;;6269328;22;20064;-89
2023/10/22 03:31:30;;;;;;;0.20;0.20;;;;;;;;;;6268816;22;20071;-88
2023/10/22 03:33:56;;;;;;;0.20;0.20;;;;;;;;;;6294817;22;20069;-89
2023/10/22 03:36:22;;;;;;;0.20;0.20;;;;;;;;;;6269153;22;20061;-88
2023/10/22 03:38:49;;;;;;;0.28;0.28;;;;;;;;;;6292097;22;20030;-88
2023/10/22 03:41:15;;;;;;;0.20;0.20;;;;;;;;;;6267399;22;20066;-88
2023/10/22 03:43:41;;;;;;;0.30;0.30;;;;;;;;;;6269104;22;20015;-88
2023/10/22 03:46:07;;;;;;;0.30;0.30;;;;;;;;;;6291545;22;20019;-88
2023/10/22 03:48:36;;;;;;;0.20;0.20;;;;;;;;;;6269949;22;20015;-89
2023/10/22 03:51:05;;;;;;;0.20;0.20;;;;;;;;;;6292307;22;20053;-88
2023/10/22 03:53:31;;;;;;;0.30;0.30;;;;;;;;;;6296468;22;20039;-87
2023/10/22 03:56:00;;;;;;;0.25;0.25;;;;;;;;;;6277506;22;20022;-88
2023/10/22 03:58:27;;;;;;;0.30;0.30;;;;;;;;;;6286615;22;20030;-87
2023/10/22 04:01:14;;;;;;;0.30;0.30;;;;;;;;;;6329834;22;20076;-88
2023/10/22 04:03:44;;;;;;;0.22;0.22;;;;;;;;;;6276464;22;20016;-87
2023/10/22 04:06:13;;;;;;;0.32;0.32;;;;;;;;;;6302973;22;20021;-86
2023/10/22 04:08:42;;;;;;;0.20;0.20;;;;;;;;;;6329392;22;20026;-88
2023/10/22 04:11:14;;;;;;;0.30;0.30;;;;;;;;;;6304001;22;20065;-87
2023/10/22 04:13:45;;;;;;;0.30;0.30;;;;;;;;;;6330244;22;20014;-87
2023/10/22 04:16:18;;;;;;;0.17;0.17;;;;;;;;;;6303609;22;20019;-85
2023/10/22 04:18:45;;;;;;;0.10;0.10;;;;;;;;;;6294009;22;20019;-88
2023/10/22 04:21:20;;;;;;;0.20;0.20;;;;;;;;;;6302119;22;20023;-88
2023/10/22 04:23:49;;;;;;;0.30;0.30;;;;;;;;;;6299312;22;20026;-89
2023/10/22 04:26:22;;;;;;;0.30;0.30;;;;;;;;;;6303947;22;20041;-88
2023/10/22 04:28:52;;;;;;;0.20;0.20;;;;;;;;;;6308439;22;20021;-89
2023/10/22 04:31:21;;;;;;;0.32;0.32;;;;;;;;;;6302736;22;20019;-88
2023/10/22 04:33:47;;;;;;;0.30;0.30;;;;;;;;;;6297982;22;20018;-87
2023/10/22 04:36:18;;;;;;;0.22;0.22;;;;;;;;;;6294529;22;20038;-89
2023/10/22 04:38:44;;;;;;;0.30;0.30;;;;;;;;;;6293295;22;20033;-87
2023/10/22 04:41:16;;;;;;;0.30;0.30;;;;;;;;;;6296235;22;20023;-90
2023/10/22 04:43:47;;;;;;;0.30;0.30;;;;;;;;;;6332713;22;20066;-89
2023/10/22 04:46:14;;;;;;;0.22;0.22;;;;;;;;;;6296334;22;20019;-89
2023/10/22 04:48:40;;;;;;;0.30;0.30;;;;;;;;;;6305883;22;20019;-87
2023/10/22 04:51:07;;;;;;;0.30;0.30;;;;;;;;;;6301612;22;20015;-88
2023/10/22 04:53:44;;;;;;;0.30;0.30;;;;;;;;;;6299424;22;20012;-87
2023/10/22 04:56:22;;;;;;;0.20;0.20;;;;;;;;;;6330456;22;20015;-90
2023/10/22 04:59:01;;;;;;;0.28;0.28;;;;;;;;;;6303677;22;20003;-87
2023/10/22 05:01:40;;;;;;;0.30;0.30;;;;;;;;;;6299243;22;20027;-86
2023/10/22 05:04:24;;;;;;;0.20;0.20;;;;;;;;;;6333353;22;20016;-88
2023/10/22 05:07:04;;;;;;;0.30;0.30;;;;;;;;;;6335237;22;20021;-86
2023/10/22 05:10:32;;;;;;;0.17;0.17;;;;;;;;;;6335508;22;20026;-88
2023/10/22 05:12:58;;;;;;;0.40;0.40;;;;;;;;;;6304506;22;20023;-87
2023/10/22 05:15:28;;;;;;;0.20;0.20;;;;;;;;;;6300407;22;20022;-88
2023/10/22 05:21:27;;;;;;;0.30;0.30;;;;;;;;;;6321799;22;20003;-87
2023/10/22 05:23:53;;;;;;;0.30;0.30;;;;;;;;;;6293121;22;20019;-88
2023/10/22 05:26:19;;;;;;;0.20;0.20;;;;;;;;;;6299105;22;20022;-88
2023/10/22 05:28:47;;;;;;;0.30;0.30;;;;;;;;;;6301277;22;19996;-88
2023/10/22 05:31:37;;;;;;;0.28;0.28;;;;;;;;;;6324636;22;20073;-87
2023/10/22 05:34:11;;;;;;;0.30;0.30;;;;;;;;;;6303608;22;20026;-86
2023/10/22 05:36:37;;;;;;;0.20;0.20;;;;;;;;;;6299686;22;20023;-89
2023/10/22 05:39:03;;;;;;;0.20;0.20;;;;;;;;;;6296858;22;20071;-89
2023/10/22 05:41:34;;;;;;;0.25;0.25;;;;;;;;;;6297000;22;20019;-85
2023/10/22 05:44:10;;;;;;;0.20;0.20;;;;;;;;;;6319053;22;20022;-86
2023/10/22 05:46:36;;;;;;;0.30;0.30;;;;;;;;;;6292236;22;20058;-89
2023/10/22 05:49:07;;;;;;;0.20;0.20;;;;;;;;;;6298599;22;20417;-87
2023/10/22 05:51:33;;;;;;;0.20;0.20;;;;;;;;;;6295642;22;20019;-87
2023/10/22 05:53:59;;;;;;;0.20;0.20;;;;;;;;;;6287873;22;20014;-86
2023/10/22 05:56:28;;;;;;;0.40;0.40;;;;;;;;;;6290262;22;20022;-87
2023/10/22 05:59:08;;;;;;;0.20;0.20;;;;;;;;;;6297124;22;19999;-87
2023/10/22 06:01:38;;;;;;;0.35;0.35;;;;;;;;;;6291452;22;20023;-87
2023/10/22 06:04:04;;;;;;;0.30;0.30;;;;;;;;;;6289088;22;20019;-87
2023/10/22 06:06:30;;;;;;;0.38;0.38;;;;;;;;;;6300863;22;20010;-87
2023/10/22 06:09:01;;;;;;;0.30;0.30;;;;;;;;;;6292489;22;20015;-88
2023/10/22 06:11:27;;;;;;;0.30;0.30;;;;;;;;;;6292152;22;20022;-86
2023/10/22 06:13:53;;;;;;;0.20;0.20;;;;;;;;;;6293649;22;20087;-87
2023/10/22 06:16:19;;;;;;;0.30;0.30;;;;;;;;;;6293200;22;20015;-86
2023/10/22 06:18:46;;;;;;;0.10;0.10;;;;;;;;;;6290439;22;20446;-89
2023/10/22 06:21:24;;;;;;;0.25;0.25;;;;;;;;;;6299268;22;20019;-87
2023/10/22 06:23:54;;;;;;;0.20;0.20;;;;;;;;;;6297576;22;20018;-87
2023/10/22 06:26:20;;;;;;;0.28;0.28;;;;;;;;;;6291348;22;20023;-88
2023/10/22 06:28:49;;;;;;;0.30;0.30;;;;;;;;;;6304440;22;20024;-87
2023/10/22 06:31:17;;;;;;;0.20;0.20;;;;;;;;;;6292979;22;20513;-88
2023/10/22 06:33:43;;;;;;;0.22;0.22;;;;;;;;;;6325832;22;20011;-87
2023/10/22 06:36:16;;;;;;;0.30;0.30;;;;;;;;;;6300451;22;20042;-88
2023/10/22 06:38:47;;;;;;;0.20;0.20;;;;;;;;;;6320833;22;20007;-88
2023/10/22 06:41:19;;;;;;;0.20;0.20;;;;;;;;;;6304354;22;20019;-88
2023/10/22 06:43:48;;;;;;;0.30;0.30;;;;;;;;;;6306845;22;20071;-86
2023/10/22 06:46:20;;;;;;;0.20;0.20;;;;;;;;;;6333247;22;20038;-88
2023/10/22 06:48:55;;;;;;;0.20;0.20;;;;;;;;;;6323328;22;20080;-88
2023/10/22 06:51:22;;;;;;;0.30;0.30;;;;;;;;;;6298069;22;20019;-88
2023/10/22 06:53:48;;;;;;;0.20;0.20;;;;;;;;;;6294479;22;20011;-88
2023/10/22 06:56:14;;;;;;;0.20;0.20;;;;;;;;;;6293791;22;20019;-87
2023/10/22 06:58:50;;;;;;;0.30;0.30;;;;;;;;;;6301972;22;20037;-87
2023/10/22 07:01:36;;;;;;;0.20;0.20;;;;;;;;;;6323004;22;20041;-87
2023/10/22 07:04:24;;;;;;;0.20;0.20;;;;;;;;;;6308929;22;20027;-86
2023/10/22 07:07:00;;;;;;;0.30;0.30;;;;;;;;;;6326389;22;20003;-86
2023/10/22 07:09:31;;;;;;;0.25;0.25;;;;;;;;;;6282361;22;20019;-87
2023/10/22 07:11:57;;;;;;;0.30;0.30;;;;;;;;;;6305210;22;20020;-86
2023/10/22 07:14:40;;;;;;;0.40;0.40;;;;;;;;;;6301312;22;20053;-87
2023/10/22 07:17:06;;;;;;;0.38;0.38;;;;;;;;;;6299921;22;20003;-87
2023/10/22 07:19:48;;;;;;;0.30;0.30;;;;;;;;;;6308859;22;20363;-89
2023/10/22 07:22:15;;;;;;;0.30;0.30;;;;;;;;;;6323970;22;20038;-89
2023/10/22 07:24:46;;;;;;;0.25;0.25;;;;;;;;;;6298440;22;20015;-86
2023/10/22 07:27:20;;;;;;;0.30;0.30;;;;;;;;;;6318725;22;20026;-87
2023/10/22 07:29:47;;;;;;;0.28;0.28;;;;;;;;;;6307548;22;20015;-87
2023/10/22 07:32:37;;;;;;;0.30;0.30;;;;;;;;;;6320884;22;20011;-88
2023/10/22 07:35:03;;;;;;;0.30;0.30;;;;;;;;;;6294064;22;20050;-88
2023/10/22 07:37:29;;;;;;;0.20;0.20;;;;;;;;;;6298491;22;20019;-88
2023/10/22 07:39:55;;;;;;;0.20;0.20;;;;;;;;;;6299795;22;20034;-87
2023/10/22 07:42:26;;;;;;;0.25;0.25;;;;;;;;;;6303219;22;20023;-87
2023/10/22 07:45:03;;;;;;;0.20;0.20;;;;;;;;;;6335385;22;20394;-88
2023/10/22 07:47:45;;;;;;;0.30;0.30;;;;;;;;;;6325143;22;20018;-87
2023/10/22 07:50:14;;;;;;;0.30;0.30;;;;;;;;;;6305833;22;20003;-86
2023/10/22 07:52:40;;;;;;;0.30;0.30;;;;;;;;;;6325636;22;20026;-87
2023/10/22 07:55:14;;;;;;;0.20;0.20;;;;;;;;;;6301891;22;20023;-88
2023/10/22 07:57:43;;;;;;;0.30;0.30;;;;;;;;;;6323094;22;20324;-88
2023/10/22 08:00:14;;;;;;;0.20;0.20;;;;;;;;;;6303098;22;20086;-89
2023/10/22 08:02:44;;;;;;;0.30;0.30;;;;;;;;;;6304888;22;20047;-90
2023/10/22 08:08:12;;;;;;;0.40;0.40;;;;;;;;;;6277915;22;20023;-90
2023/10/22 08:10:57;;;;;;;0.30;0.30;;;;;;;;;;6329108;22;20023;-89
2023/10/22 08:16:02;;;;;;;0.20;0.20;;;;;;;;;;6303377;22;20079;-90
2023/10/22 08:18:35;;;;;;;0.25;0.25;;;;;;;;;;6283952;22;20004;-90
2023/10/22 08:21:16;;;;;;;0.20;0.20;;;;;;;;;;6284636;22;20015;-91
2023/10/22 08:26:27;;;;;;;0.30;0.30;;;;;;;;;;6270137;22;20007;-91
2023/10/22 08:28:59;;;;;;;0.20;0.20;;;;;;;;;;6276968;22;20034;-90
2023/10/22 08:31:47;;;;;;;0.30;0.30;;;;;;;;;;6280217;22;20003;-90
2023/10/22 08:39:28;;;;;;;0.30;0.30;;;;;;;;;;6328658;22;20049;-90
2023/10/22 08:42:02;;;;;;;0.30;0.30;;;;;;;;;;6281847;22;20010;-91
2023/10/22 08:44:34;;;;;;;0.20;0.20;;;;;;;;;;6259098;22;20006;-90
2023/10/22 08:47:00;;;;;;;0.30;0.30;;;;;;;;;;6277168;22;19999;-90
2023/10/22 08:49:32;;;;;;;0.20;0.20;;;;;;;;;;6282605;22;20007;-90
2023/10/22 08:52:13;;;;;;;0.20;0.20;;;;;;;;;;6310128;22;20010;-91
2023/10/22 08:55:21;;;;;;;0.20;0.20;;;;;;;;;;6334533;22;20002;-90
2023/10/22 09:00:27;;;;;;;0.20;0.20;;;;;;;;;;6297548;22;20036;-90
2023/10/22 09:02:54;;;;;;;0.20;0.20;;;;;;;;;;6278832;22;20047;-91
2023/10/22 09:08:23;;;;;;;0.20;0.20;;;;;;;;;;6330344;22;20018;-91
2023/10/22 09:10:55;;;;;;;0.20;0.20;;;;;;;;;;6331940;22;20053;-90
2023/10/22 09:13:23;;;;;;;0.20;0.20;;;;;;;;;;6304598;22;20029;-91
2023/10/22 09:15:51;;;;;;;0.30;0.30;;;;;;;;;;6305504;22;20023;-91
2023/10/22 09:18:18;;;;;;;0.20;0.20;;;;;;;;;;6303585;22;20022;-91
2023/10/22 09:20:48;;;;;;;0.20;0.20;;;;;;;;;;6304153;22;20019;-90
2023/10/22 09:23:14;;;;;;;0.20;0.20;;;;;;;;;;6303280;22;20019;-92
2023/10/22 09:25:58;;;;;;;0.17;0.17;;;;;;;;;;6305060;22;20007;-90
2023/10/22 09:28:54;;;;;;;0.20;0.20;;;;;;;;;;6310054;22;20013;-90
2023/10/22 09:36:53;;;;;;;0.35;0.35;;;;;;;;;;6229345;22;20015;-89
2023/10/22 09:41:58;;;;;;;0.30;0.30;;;;;;;;;;6257530;22;20024;-91
2023/10/22 09:47:01;;;;;;;0.20;0.20;;;;;;;;;;6267592;22;20091;-91
2023/10/22 09:49:52;;;;;;;;;;;;;;;;;;;;;
2023/10/22 09:52:22;;;;;;;0.20;0.20;;;;;;;;;;6235396;22;20008;-94
2023/10/22 09:54:50;;;;;;;0.20;0.20;;;;;;;;;;6218925;23;20027;-94
2023/10/22 09:57:17;;;;;;;0.30;0.30;;;;;;;;;;6220848;23;20000;-93
2023/10/22 09:59:51;;;;;;;0.20;0.20;;;;;;;;;;6217848;23;20020;-94
2023/10/22 10:07:32;;;;;;;0.30;0.30;;;;;;;;;;6276706;22;20035;-92
2023/10/22 10:10:00;;;;;;;0.30;0.30;;;;;;;;;;6225475;22;20083;-93
2023/10/22 10:15:07;;;;;;;0.28;0.28;;;;;;;;;;6257710;22;20228;-92
2023/10/22 10:17:50;;;;;;;0.20;0.20;;;;;;;;;;6279206;22;20476;-93
2023/10/22 10:28:06;;;;;;;0.20;0.20;;;;;;;;;;6288421;22;20017;-92
2023/10/22 10:30:34;;;;;;;0.30;0.30;;;;;;;;;;6278221;22;20003;-93
2023/10/22 11:15:03;;;;;;;0.28;0.28;;;;;;;;;;6295915;22;20026;-91
2023/10/22 11:17:29;;;;;;;0.20;0.20;;;;;;;;;;6278483;22;20015;-92
2023/10/22 11:25:12;;;;;;;0.20;0.20;;;;;;;;;;6303093;22;19899;-94
2023/10/22 11:27:40;;;;;;;0.20;0.20;;;;;;;;;;6306205;22;20025;-92
2023/10/22 11:30:07;;;;;;;0.20;0.20;;;;;;;;;;6279253;22;20086;-93
2023/10/22 11:35:18;;;;;;;0.30;0.30;;;;;;;;;;6291405;22;20045;-92
2023/10/22 11:37:45;;;;;;;0.20;0.20;;;;;;;;;;6242702;22;20010;-91
2023/10/22 11:42:47;;;;;;;0.20;0.20;;;;;;;;;;6251624;22;20007;-90
2023/10/22 11:45:19;;;;;;;0.30;0.30;;;;;;;;;;6228348;22;20007;-91
2023/10/22 11:48:17;;;;;;;0.30;0.30;;;;;;;;;;6270981;22;20024;-91
2023/10/22 11:50:48;;;;;;;0.20;0.20;;;;;;;;;;6278439;22;20011;-90
2023/10/22 11:53:17;;;;;;;0.20;0.20;;;;;;;;;;6278154;22;20016;-90
2023/10/22 11:58:20;;;;;;;0.13;0.13;;;;;;;;;;6312387;22;20614;-92
2023/10/22 12:00:46;;;;;;;0.20;0.20;;;;;;;;;;6311579;22;20010;-92
2023/10/22 12:03:12;;;;;;;0.30;0.30;;;;;;;;;;6310100;22;20014;-92
2023/10/22 12:05:38;;;;;;;0.22;0.22;;;;;;;;;;6335339;22;20081;-92
2023/10/22 12:08:04;;;;;;;0.20;0.20;;;;;;;;;;6309799;22;20023;-91
2023/10/22 12:10:30;;;;;;;0.22;0.22;;;;;;;;;;6311340;22;20014;-89
2023/10/22 12:15:32;;;;;;;0.20;0.20;;;;;;;;;;6321300;22;20022;-92
2023/10/22 12:17:58;;;;;;;0.30;0.30;;;;;;;;;;6304200;22;20035;-91
2023/10/22 12:20:24;;;;;;;0.13;0.13;;;;;;;;;;6279478;22;20027;-92
2023/10/22 12:22:51;;;;;;;0.30;0.30;;;;;;;;;;6279941;22;20019;-90
2023/10/22 12:25:17;;;;;;;0.30;0.30;;;;;;;;;;6279109;22;20026;-91
2023/10/22 12:27:43;;;;;;;0.30;0.30;;;;;;;;;;6242799;22;20072;-91
2023/10/22 12:30:09;;;;;;;0.20;0.20;;;;;;;;;;6273236;22;20027;-93
2023/10/22 12:32:37;;;;;;;0.20;0.20;;;;;;;;;;6274945;22;20012;-94
2023/10/22 12:35:10;;;;;;;0.20;0.20;;;;;;;;;;6274198;22;20019;-92
2023/10/22 12:42:47;;;;;;;0.20;0.20;;;;;;;;;;6280661;22;20106;-92
2023/10/22 12:45:13;;;;;;;0.25;0.25;;;;;;;;;;6278831;22;20458;-92
2023/10/22 12:47:40;;;;;;;0.20;0.20;;;;;;;;;;6276543;22;20022;-93
2023/10/22 12:50:06;;;;;;;0.20;0.20;;;;;;;;;;6279328;22;20014;-93
2023/10/22 12:52:32;;;;;;;0.20;0.20;;;;;;;;;;6279425;22;20019;-91
2023/10/22 12:54:58;;;;;;;0.30;0.30;;;;;;;;;;6277516;22;20071;-91
2023/10/22 12:57:24;;;;;;;0.30;0.30;;;;;;;;;;6278162;22;20098;-93
2023/10/22 12:59:50;;;;;;;0.30;0.30;;;;;;;;;;6265528;22;20029;-92
2023/10/22 13:02:16;;;;;;;0.30;0.30;;;;;;;;;;6272255;22;20042;-92
2023/10/22 13:04:46;;;;;;;0.20;0.20;;;;;;;;;;6275452;22;20038;-92
2023/10/22 13:09:48;;;;;;;0.20;0.20;;;;;;;;;;6327664;22;20034;-89
2023/10/22 13:12:18;;;;;;;0.20;0.20;;;;;;;;;;6297658;22;20071;-85
2023/10/22 13:14:48;;;;;;;0.20;0.20;;;;;;;;;;6304156;22;20026;-91
2023/10/22 13:17:19;;;;;;;0.28;0.28;;;;;;;;;;6302189;22;19999;-93
2023/10/22 13:22:21;;;;;;;0.30;0.30;;;;;;;;;;6316851;22;20056;-90
2023/10/22 13:27:22;;;;;;;0.20;0.20;;;;;;;;;;6274068;22;20030;-93
2023/10/22 13:29:49;;;;;;;0.35;0.35;;;;;;;;;;6303578;22;20019;-94
2023/10/22 13:34:51;;;;;;;0.30;0.30;;;;;;;;;;6332122;22;20019;-94
2023/10/22 13:37:17;;;;;;;0.20;0.20;;;;;;;;;;6279157;22;20019;-93
2023/10/22 13:39:48;;;;;;;0.30;0.30;;;;;;;;;;6306614;22;19999;-94
2023/10/22 13:42:15;;;;;;;0.20;0.20;;;;;;;;;;6279509;22;20016;-93
2023/10/22 13:47:17;;;;;;;0.25;0.25;;;;;;;;;;6299355;22;20020;-93
2023/10/22 13:49:46;;;;;;;0.20;0.20;;;;;;;;;;6248270;22;19999;-94
2023/10/22 13:59:59;;;;;;;0.20;0.20;;;;;;;;;;6330047;22;20085;-94
2023/10/22 14:02:26;;;;;;;0.30;0.30;;;;;;;;;;6280263;22;20023;-94
2023/10/22 14:10:04;;;;;;;0.38;0.38;;;;;;;;;;6309069;22;20022;-93
2023/10/22 14:12:30;;;;;;;0.32;0.32;;;;;;;;;;6281486;22;20052;-93
2023/10/22 14:14:56;;;;;;;0.20;0.20;;;;;;;;;;6280566;22;20046;-92
2023/10/22 14:20:00;;;;;;;0.10;0.10;;;;;;;;;;6317198;22;19964;-94
2023/10/22 14:27:38;;;;;;;0.20;0.20;;;;;;;;;;6361214;22;20023;-94
2023/10/22 14:30:04;;;;;;;0.30;0.30;;;;;;;;;;6311394;22;20014;-93
2023/10/22 14:32:33;;;;;;;0.22;0.22;;;;;;;;;;6310816;22;20041;-92
2023/10/22 14:43:14;;;;;;;0.30;0.30;;;;;;;;;;6262968;22;20399;-93
2023/10/22 14:45:40;;;;;;;0.30;0.30;;;;;;;;;;6279838;22;20039;-93
2023/10/22 14:56:04;;;;;;;0.30;0.30;;;;;;;;;;6182812;22;1174120;-93
2023/10/22 14:58:33;;;;;;;0.30;0.30;;;;;;;;;;6281064;22;20023;-93
2023/10/22 15:08:46;;;;;;;0.30;0.30;;;;;;;;;;6329724;22;20101;-94
2023/10/22 15:11:19;;;;;;;0.30;0.30;;;;;;;;;;6280941;22;20074;-92
2023/10/22 15:13:50;;;;;;;0.30;0.30;;;;;;;;;;6281688;22;20011;-95
2023/10/22 15:16:16;;;;;;;0.30;0.30;;;;;;;;;;6305110;22;20062;-92
2023/10/22 15:18:42;;;;;;;0.25;0.25;;;;;;;;;;6280161;22;20025;-94
2023/10/22 15:21:11;;;;;;;0.20;0.20;;;;;;;;;;6281153;22;19999;-93
2023/10/22 15:26:14;;;;;;;0.30;0.30;;;;;;;;;;6266492;22;20007;-92
2023/10/22 15:33:52;;;;;;;0.28;0.28;;;;;;;;;;6329242;22;20019;-93
2023/10/22 15:38:54;;;;;;;0.40;0.40;;;;;;;;;;6325287;22;20034;-93
2023/10/22 15:49:17;;;;;;;0.40;0.40;;;;;;;;;;6332324;22;20027;-94
2023/10/22 15:57:00;;;;;;;0.10;0.10;;;;;;;;;;6326433;22;20079;-93
2023/10/22 15:59:26;;;;;;;0.30;0.30;;;;;;;;;;6279223;22;20049;-94
2023/10/22 16:01:52;;;;;;;0.22;0.22;;;;;;;;;;6278727;22;20030;-94
2023/10/22 16:04:21;;;;;;;0.30;0.30;;;;;;;;;;6306232;22;20017;-94
2023/10/22 16:14:39;;;;;;;0.30;0.30;;;;;;;;;;6355396;22;20101;-94
2023/10/22 16:17:08;;;;;;;0.20;0.20;;;;;;;;;;6334484;22;20040;-93
2023/10/22 16:19:35;;;;;;;0.20;0.20;;;;;;;;;;6310568;22;20015;-93
2023/10/22 16:22:02;;;;;;;0.20;0.20;;;;;;;;;;6335630;22;20002;-91
2023/10/22 16:24:28;;;;;;;0.30;0.30;;;;;;;;;;6310300;22;20037;-92
2023/10/22 16:26:54;;;;;;;0.20;0.20;;;;;;;;;;6309176;22;20022;-94
2023/10/22 16:29:23;;;;;;;0.20;0.20;;;;;;;;;;6311440;22;20014;-92
2023/10/22 16:31:49;;;;;;;0.30;0.30;;;;;;;;;;6306753;22;20073;-93
2023/10/22 16:34:15;;;;;;;0.40;0.40;;;;;;;;;;6311862;22;20022;-94
2023/10/22 16:37:08;;;;;;;0.20;0.20;;;;;;;;;;6309710;22;20029;-93
2023/10/22 16:57:48;;;;;;;0.28;0.28;;;;;;;;;;6338544;22;20531;-93
2023/10/22 17:00:14;;;;;;;0.30;0.30;;;;;;;;;;6307085;22;20022;-95
2023/10/22 17:05:27;;;;;;;0.20;0.20;;;;;;;;;;6292561;22;20020;-95
2023/10/22 17:07:53;;;;;;;0.20;0.20;;;;;;;;;;6246771;22;20016;-92
2023/10/22 17:10:19;;;;;;;0.30;0.30;;;;;;;;;;6248881;22;20068;-96
2023/10/22 17:20:32;;;;;;;0.30;0.30;;;;;;;;;;6289849;22;20027;-94
2023/10/22 17:23:00;;;;;;;0.30;0.30;;;;;;;;;;6292081;22;20004;-92
2023/10/22 17:28:03;;;;;;;0.40;0.40;;;;;;;;;;6294102;22;20020;-93
2023/10/22 17:33:05;;;;;;;0.30;0.30;;;;;;;;;;6298442;22;20043;-92
2023/10/22 17:35:31;;;;;;;0.35;0.35;;;;;;;;;;6246666;22;20012;-95
2023/10/22 17:38:03;;;;;;;0.30;0.30;;;;;;;;;;6246794;22;20003;-94
2023/10/22 17:40:29;;;;;;;0.30;0.30;;;;;;;;;;6247105;22;20047;-94
2023/10/22 17:50:42;;;;;;;0.20;0.20;;;;;;;;;;6328856;22;20023;-95
2023/10/22 17:53:10;;;;;;;0.30;0.30;;;;;;;;;;6291781;22;19999;-93
2023/10/22 17:55:36;;;;;;;0.20;0.20;;;;;;;;;;6278664;22;20015;-92
2023/10/22 17:58:04;;;;;;;0.20;0.20;;;;;;;;;;6276487;22;20090;-95
2023/10/22 18:00:31;;;;;;;0.30;0.30;;;;;;;;;;6300924;22;20014;-95
2023/10/22 18:02:58;;;;;;;0.30;0.30;;;;;;;;;;6269936;22;20273;-96
2023/10/22 18:10:57;;;;;;;0.30;0.30;;;;;;;;;;6328289;22;20035;-94
2023/10/22 18:13:26;;;;;;;0.30;0.30;;;;;;;;;;6276093;22;20015;-92
2023/10/22 18:15:53;;;;;;;0.35;0.35;;;;;;;;;;6276166;22;20073;-95
2023/10/22 18:26:27;;;;;;;0.30;0.30;;;;;;;;;;6296051;22;20085;-96
2023/10/22 18:29:19;;;;;;;0.20;0.20;;;;;;;;;;6293507;22;20026;-95
2023/10/22 18:31:47;;;;;;;0.30;0.30;;;;;;;;;;6276538;22;20019;-94
2023/10/22 18:36:49;;;;;;;0.22;0.22;;;;;;;;;;6284190;22;20016;-93
2023/10/22 18:44:28;;;;;;;0.20;0.20;;;;;;;;;;6280112;22;20027;-95
2023/10/22 19:02:31;;;;;;;0.20;0.20;;;;;;;;;;6276403;22;20043;-94
2023/10/22 19:07:33;;;;;;;0.30;0.30;;;;;;;;;;6263267;22;20039;-91
2023/10/22 19:09:59;;;;;;;0.20;0.20;;;;;;;;;;6276629;22;20070;-93
2023/10/22 19:17:38;;;;;;;0.20;0.20;;;;;;;;;;6264843;22;20004;-95
2023/10/22 19:22:39;;;;;;;0.30;0.30;;;;;;;;;;6296052;22;20008;-93
2023/10/22 19:25:06;;;;;;;0.20;0.20;;;;;;;;;;6278428;22;20003;-93
2023/10/22 19:37:55;;;;;;;0.30;0.30;;;;;;;;;;6319502;22;20063;-93
2023/10/22 19:42:57;;;;;;;0.22;0.22;;;;;;;;;;6329321;22;20023;-95
2023/10/22 20:08:46;;;;;;;0.50;0.50;;;;;;;;;;6324284;22;20082;-94
2023/10/22 20:16:27;;;;;;;0.40;0.40;;;;;;;;;;6267069;22;20027;-94
2023/10/22 20:26:40;;;;;;;0.32;0.32;;;;;;;;;;6320752;22;20015;-95
2023/10/22 20:31:42;;;;;;;0.30;0.30;;;;;;;;;;6271104;22;20032;-93
2023/10/22 20:34:08;;;;;;;0.20;0.20;;;;;;;;;;6246062;22;20031;-94
2023/10/22 20:39:09;;;;;;;0.30;0.30;;;;;;;;;;6329305;22;20081;-93
2023/10/22 20:46:48;;;;;;;0.28;0.28;;;;;;;;;;6298984;22;20072;-94
2023/10/22 20:49:14;;;;;;;0.30;0.30;;;;;;;;;;6246534;22;20020;-93
2023/10/22 20:51:41;;;;;;;0.20;0.20;;;;;;;;;;6245945;22;20027;-95
2023/10/22 20:54:08;;;;;;;0.40;0.40;;;;;;;;;;6246367;22;20016;-94
2023/10/22 20:56:34;;;;;;;0.30;0.30;;;;;;;;;;6248585;22;20442;-94
2023/10/22 21:01:36;;;;;;;0.35;0.35;;;;;;;;;;6319181;22;20027;-96
2023/10/22 21:04:04;;;;;;;0.30;0.30;;;;;;;;;;6252626;22;20035;-96
2023/10/22 21:16:52;;;;;;;0.30;0.30;;;;;;;;;;6299790;22;20034;-93
2023/10/22 21:19:20;;;;;;;0.32;0.32;;;;;;;;;;6247670;22;20024;-96
2023/10/22 21:21:47;;;;;;;0.40;0.40;;;;;;;;;;6228086;22;20030;-92
2023/10/22 21:24:14;;;;;;;0.30;0.30;;;;;;;;;;6272621;22;20016;-95
2023/10/22 21:26:41;;;;;;;0.30;0.30;;;;;;;;;;6274237;22;20015;-93
2023/10/22 21:29:07;;;;;;;0.30;0.30;;;;;;;;;;6273072;22;20019;-95
2023/10/22 21:32:04;;;;;;;0.30;0.30;;;;;;;;;;6300125;22;20022;-95
2023/10/22 21:34:51;;;;;;;;;;;;;;;;;;;;;
2023/10/22 23:03:08;;;;;;;0.30;0.30;;;;;;;;;;6331944;22;20011;-95
2023/10/22 23:05:34;;;;;;;0.40;0.40;;;;;;;;;;6262621;22;20057;-95
2023/10/22 23:08:01;;;;;;;0.30;0.30;;;;;;;;;;6254159;22;20059;-96
2023/10/22 23:10:27;;;;;;;0.30;0.30;;;;;;;;;;6305979;22;20067;-95
2023/10/22 23:13:02;;;;;;;;;;;;;;;;;;6307719;22;20039;-96
2023/10/22 23:15:29;;;;;;;0.30;0.30;;;;;;;;;;6306611;22;19899;-95
2023/10/22 23:17:55;;;;;;;0.40;0.40;;;;;;;;;;6280530;22;20033;-96
2023/10/22 23:20:43;;;;;;;0.30;0.30;;;;;;;;;;6308606;22;20007;-94
2023/10/22 23:23:45;;;;;;;0.30;0.30;;;;;;;;;;6292300;22;20037;-96
2023/10/22 23:31:23;;;;;;;0.30;0.30;;;;;;;;;;6310536;22;19926;-94
2023/10/22 23:36:27;;;;;;;0.40;0.40;;;;;;;;;;6328047;22;20023;-95